Time;durP1;ratioP1;P1;durP2;ratioP2;P2;SDS_P1;SDS_P2;PMS_P1;PMS_P2;Temp;Humidity;BMP_temperature;BMP_pressure;BME280_temperature;BME280_humidity;BME280_pressure;Samples;Min_cycle;Max_cycle;Signal;HPM_P1;HPM_P2
2023/07/02 00:07:14;;;;;;;19.6;16.5;;;;;;;19.02;87.76;;;;;
2023/07/02 00:17:14;;;;;;;19.6;16.5;;;;;;;18.97;87.86;;;;;
2023/07/02 00:27:14;;;;;;;19.3;16;;;;;;;18.87;88.38;;;;;
2023/07/02 00:37:15;;;;;;;19.3;16;;;;;;;18.94;87.98;;;;;
2023/07/02 00:48:14;;;;;;;19.3;16;;;;;;;18.93;87.27;;;;;
2023/07/02 00:59:14;;;;;;;19.6;15.7;;;;;;;18.83;87.72;;;;;
2023/07/02 01:09:14;;;;;;;19.6;15.7;;;;;;;18.72;88.06;;;;;
2023/07/02 01:20:14;;;;;;;19.6;15.7;;;;;;;18.73;87.7;;;;;
2023/07/02 01:31:14;;;;;;;16.3;14.5;;;;;;;18.64;87.99;;;;;
2023/07/02 01:41:14;;;;;;;16.3;14.5;;;;;;;18.67;87.95;;;;;
2023/07/02 01:51:14;;;;;;;16.3;14.5;;;;;;;18.8;87.01;;;;;
2023/07/02 02:01:14;;;;;;;16.6;14.4;;;;;;;18.86;86.48;;;;;
2023/07/02 02:12:14;;;;;;;16.6;14.4;;;;;;;18.96;85.98;;;;;
2023/07/02 02:22:14;;;;;;;16.6;14.4;;;;;;;18.95;85.63;;;;;
2023/07/02 02:33:14;;;;;;;16.7;12.6;;;;;;;18.99;85.1;;;;;
2023/07/02 02:43:20;;;;;;;16.7;12.6;;;;;;;18.93;84.89;;;;;
2023/07/02 03:07:54;;;;;;;12.2;9.4;;;;;;;18.87;84.05;;;;;
2023/07/02 03:17:54;;;;;;;12.2;9.4;;;;;;;18.82;83.99;;;;;
2023/07/02 03:28:54;;;;;;;15;10.7;;;;;;;18.9;83.84;;;;;
2023/07/02 03:38:54;;;;;;;15;10.7;;;;;;;18.97;83.62;;;;;
2023/07/02 03:48:54;;;;;;;15;10.7;;;;;;;19.14;83.36;;;;;
2023/07/02 03:59:54;;;;;;;14.8;10.8;;;;;;;19.3;83.19;;;;;
2023/07/02 04:09:54;;;;;;;14.8;10.8;;;;;;;19.48;83.31;;;;;
2023/07/02 04:20:54;;;;;;;13.6;11.9;;;;;;;19.74;82.94;;;;;
2023/07/02 04:30:54;;;;;;;13.6;11.9;;;;;;;19.93;81.64;;;;;
2023/07/02 04:40:57;;;;;;;13.6;11.9;;;;;;;20.1;80.85;;;;;
2023/07/02 04:51:54;;;;;;;13.7;9.8;;;;;;;20.4;79.24;;;;;
2023/07/02 05:01:54;;;;;;;13.7;9.8;;;;;;;21.07;78.08;;;;;
2023/07/02 05:11:54;;;;;;;13.7;9.8;;;;;;;21.52;76.44;;;;;
2023/07/02 05:21:54;;;;;;;12.4;9.1;;;;;;;21.72;74.78;;;;;
2023/07/02 05:32:54;;;;;;;12.4;9.1;;;;;;;22.04;74.63;;;;;
2023/07/02 05:42:55;;;;;;;12.4;9.1;;;;;;;22.42;72.08;;;;;
2023/07/02 05:53:54;;;;;;;11.9;8.7;;;;;;;22.68;71.13;;;;;
2023/07/02 06:03:55;;;;;;;11.9;8.7;;;;;;;22.98;68.6;;;;;
2023/07/02 06:13:55;;;;;;;11.9;8.7;;;;;;;23.42;65.73;;;;;
2023/07/02 06:23:55;;;;;;;9.7;6.7;;;;;;;23.12;64.11;;;;;
2023/07/02 06:34:55;;;;;;;9.7;6.7;;;;;;;23.5;63.71;;;;;
2023/07/02 06:44:55;;;;;;;9.7;6.7;;;;;;;23.48;62.65;;;;;
2023/07/02 06:55:55;;;;;;;9.2;6.7;;;;;;;23.6;59.94;;;;;
2023/07/02 07:05:55;;;;;;;9.2;6.7;;;;;;;23.66;58.52;;;;;
2023/07/02 07:15:55;;;;;;;9.2;6.7;;;;;;;24.53;55.85;;;;;
2023/07/02 07:25:55;;;;;;;9.7;4.7;;;;;;;24.85;54.53;;;;;
2023/07/02 07:36:55;;;;;;;9.7;4.7;;;;;;;24.84;53.08;;;;;
2023/07/02 07:47:55;;;;;;;9.7;4.7;;;;;;;24.05;53.27;;;;;
2023/07/02 07:57:55;;;;;;;8.3;4.6;;;;;;;24.32;52.79;;;;;
2023/07/02 08:08:55;;;;;;;8.3;4.6;;;;;;;24.37;55.14;;;;;
2023/07/02 08:19:55;;;;;;;8.3;4.6;;;;;;;25.01;54.72;;;;;
2023/07/02 08:29:55;;;;;;;10.4;4.8;;;;;;;24.89;53.41;;;;;
2023/07/02 08:40:55;;;;;;;10.4;4.8;;;;;;;24.29;54.51;;;;;
2023/07/02 08:51:55;;;;;;;9.9;5.4;;;;;;;24.35;55.56;;;;;
2023/07/02 09:01:55;;;;;;;9.9;5.4;;;;;;;24.3;57.09;;;;;
2023/07/02 09:11:55;;;;;;;9.9;5.4;;;;;;;24.02;55.5;;;;;
2023/07/02 09:22:55;;;;;;;6.5;3.5;;;;;;;24.43;53.29;;;;;
2023/07/02 09:33:55;;;;;;;6.5;3.5;;;;;;;23.62;55.65;;;;;
2023/07/02 09:44:55;;;;;;;6.5;3.5;;;;;;;23.64;56.54;;;;;
2023/07/02 09:55:55;;;;;;;5.7;3.3;;;;;;;23.39;58;;;;;
2023/07/02 10:06:55;;;;;;;5.7;3.3;;;;;;;23.97;57.9;;;;;
2023/07/02 10:16:55;;;;;;;5.7;3.3;;;;;;;24.01;58.27;;;;;
2023/07/02 10:26:55;;;;;;;4.8;2.3;;;;;;;24.27;60.11;;;;;
2023/07/02 10:37:55;;;;;;;4.8;2.3;;;;;;;23.81;60.26;;;;;
2023/07/02 10:48:55;;;;;;;4.8;2.3;;;;;;;24.24;62;;;;;
2023/07/02 10:59:55;;;;;;;5.9;3.7;;;;;;;23.8;62.52;;;;;
2023/07/02 11:09:55;;;;;;;5.9;3.7;;;;;;;24.11;61.61;;;;;
2023/07/02 11:20:55;;;;;;;5.9;3.7;;;;;;;23.41;62.48;;;;;
2023/07/02 11:30:55;;;;;;;4.6;3.4;;;;;;;23.61;62.19;;;;;
2023/07/02 11:40:55;;;;;;;4.6;3.4;;;;;;;24.51;60.02;;;;;
2023/07/02 11:50:55;;;;;;;4.6;3.4;;;;;;;24.67;59.89;;;;;
2023/07/02 12:01:55;;;;;;;5.7;3;;;;;;;23.98;61.95;;;;;
2023/07/02 12:11:55;;;;;;;5.7;3;;;;;;;24.23;60.37;;;;;
2023/07/02 12:22:55;;;;;;;4;3;;;;;;;24.75;59.24;;;;;
2023/07/02 12:32:55;;;;;;;4;3;;;;;;;25.4;57.57;;;;;
2023/07/02 12:42:56;;;;;;;4;3;;;;;;;25.22;52.2;;;;;
2023/07/02 12:52:55;;;;;;;4.7;2.5;;;;;;;25.35;55.66;;;;;
2023/07/02 13:03:55;;;;;;;4.7;2.5;;;;;;;25.68;54.77;;;;;
2023/07/02 13:13:55;;;;;;;4.7;2.5;;;;;;;26.03;55.37;;;;;
2023/07/02 13:24:55;;;;;;;4.5;2.6;;;;;;;25.52;54.83;;;;;
2023/07/02 13:35:55;;;;;;;4.5;2.6;;;;;;;25.69;54.88;;;;;
2023/07/02 13:45:55;;;;;;;4.5;2.6;;;;;;;25.44;54.57;;;;;
2023/07/02 13:56:55;;;;;;;3.6;2.1;;;;;;;24.61;55.19;;;;;
2023/07/02 14:07:55;;;;;;;3.6;2.1;;;;;;;22.37;60.6;;;;;
2023/07/02 14:17:55;;;;;;;3.6;2.1;;;;;;;21.67;60.47;;;;;
2023/07/02 14:28:55;;;;;;;3.8;1.4;;;;;;;21.16;61.15;;;;;
2023/07/02 14:39:55;;;;;;;3.8;1.4;;;;;;;20.71;63.07;;;;;
2023/07/02 14:49:55;;;;;;;3.8;1.4;;;;;;;20.28;64.01;;;;;
2023/07/02 15:00:55;;;;;;;8;1.6;;;;;;;20.15;67.46;;;;;
2023/07/02 15:10:55;;;;;;;8;1.6;;;;;;;20.17;68.59;;;;;
2023/07/02 15:21:55;;;;;;;6;3;;;;;;;20.34;68.66;;;;;
2023/07/02 15:31:55;;;;;;;6;3;;;;;;;20.87;67.01;;;;;
2023/07/02 15:42:55;;;;;;;6;3;;;;;;;21.18;66.76;;;;;
2023/07/02 15:52:55;;;;;;;3.7;1.5;;;;;;;25.83;57.44;;;;;
2023/07/02 16:02:56;;;;;;;3.7;1.5;;;;;;;28.11;50.02;;;;;
2023/07/02 16:13:55;;;;;;;3.7;1.5;;;;;;;30.21;45.4;;;;;
2023/07/02 16:24:55;;;;;;;3.1;1.2;;;;;;;30.87;43.74;;;;;
2023/07/02 16:35:55;;;;;;;3.1;1.2;;;;;;;32.14;41.56;;;;;
2023/07/02 16:45:56;;;;;;;3.1;1.2;;;;;;;34.22;36.68;;;;;
2023/07/02 16:56:55;;;;;;;3.7;1.2;;;;;;;33.27;36.4;;;;;
2023/07/02 17:07:55;;;;;;;3.7;1.2;;;;;;;33.03;37.79;;;;;
2023/07/02 17:17:55;;;;;;;3.7;1.2;;;;;;;29.59;43.91;;;;;
2023/07/02 17:27:55;;;;;;;4.7;1.6;;;;;;;26.7;49.53;;;;;
2023/07/02 17:37:55;;;;;;;4.7;1.6;;;;;;;28.62;45.67;;;;;
2023/07/02 17:47:55;;;;;;;4.7;1.6;;;;;;;30.71;42.16;;;;;
2023/07/02 17:58:55;;;;;;;3.4;1.7;;;;;;;31.78;40.22;;;;;
2023/07/02 18:09:57;;;;;;;3.4;1.7;;;;;;;29.78;42.46;;;;;
2023/07/02 18:19:56;;;;;;;3.4;1.7;;;;;;;27.18;47.21;;;;;
2023/07/02 18:30:55;;;;;;;3.8;1.8;;;;;;;24.93;51.74;;;;;
2023/07/02 18:40:56;;;;;;;3.8;1.8;;;;;;;23.3;56.77;;;;;
2023/07/02 18:50:55;;;;;;;3.8;1.8;;;;;;;22.05;58.09;;;;;
2023/07/02 19:01:55;;;;;;;4.4;2.2;;;;;;;20.86;63.04;;;;;
2023/07/02 19:11:55;;;;;;;4.4;2.2;;;;;;;20.11;65.44;;;;;
2023/07/02 19:21:55;;;;;;;4.4;2.2;;;;;;;19.36;68.33;;;;;
2023/07/02 19:32:55;;;;;;;5.1;3.1;;;;;;;18.68;71.34;;;;;
2023/07/02 19:42:55;;;;;;;5.1;3.1;;;;;;;18.32;73.18;;;;;
2023/07/02 19:53:55;;;;;;;5.6;3;;;;;;;18.07;73.11;;;;;
2023/07/02 20:04:55;;;;;;;5.6;3;;;;;;;17.96;74.84;;;;;
2023/07/02 20:14:55;;;;;;;5.6;3;;;;;;;17.85;76.05;;;;;
2023/07/02 20:25:55;;;;;;;6.2;3;;;;;;;17.81;76.75;;;;;
2023/07/02 20:35:55;;;;;;;6.2;3;;;;;;;17.73;76.68;;;;;
2023/07/02 20:46:56;;;;;;;6.2;3;;;;;;;17.73;76.6;;;;;
2023/07/02 20:57:55;;;;;;;5.4;2.7;;;;;;;17.81;76.39;;;;;
2023/07/02 21:08:56;;;;;;;5.4;2.7;;;;;;;17.79;75.97;;;;;
2023/07/02 21:19:55;;;;;;;5.4;2.7;;;;;;;17.96;75.38;;;;;
2023/07/02 21:30:55;;;;;;;5.3;3;;;;;;;18.11;75.19;;;;;
2023/07/02 21:40:55;;;;;;;5.3;3;;;;;;;18.07;75.43;;;;;
2023/07/02 21:51:55;;;;;;;5.3;3;;;;;;;18.01;75.92;;;;;
2023/07/02 22:01:55;;;;;;;8.9;5.4;;;;;;;17.96;75.61;;;;;
2023/07/02 22:11:55;;;;;;;8.9;5.4;;;;;;;17.74;76.79;;;;;
2023/07/02 22:21:55;;;;;;;8.9;5.4;;;;;;;17.47;76.53;;;;;
2023/07/02 22:31:55;;;;;;;7.5;4.5;;;;;;;17.09;78.92;;;;;
2023/07/02 22:42:55;;;;;;;7.5;4.5;;;;;;;16.9;80.42;;;;;
2023/07/02 22:53:55;;;;;;;11.8;4.5;;;;;;;16.87;80.5;;;;;
2023/07/02 23:03:55;;;;;;;11.8;4.5;;;;;;;16.87;82.25;;;;;
2023/07/02 23:13:55;;;;;;;11.8;4.5;;;;;;;16.73;83.49;;;;;
2023/07/02 23:23:58;;;;;;;6.8;3.9;;;;;;;16.97;82.28;;;;;
2023/07/02 23:33:55;;;;;;;6.8;3.9;;;;;;;17.18;81.26;;;;;
2023/07/02 23:43:55;;;;;;;6.8;3.9;;;;;;;17.27;81.34;;;;;
2023/07/02 23:53:55;;;;;;;8.3;3.6;;;;;;;17.42;81.28;;;;;
